sensor_id;sensor_type;location;lat;lon;timestamp;temperature;humidity
47805;DHT22;33568;45.286;9.900;2022-10-17T00:02:20;20.50;90.10
47805;DHT22;33568;45.286;9.900;2022-10-17T00:04:46;20.60;89.80
47805;DHT22;33568;45.286;9.900;2022-10-17T00:07:12;20.60;90.00
47805;DHT22;33568;45.286;9.900;2022-10-17T00:09:41;20.60;90.00
47805;DHT22;33568;45.286;9.900;2022-10-17T00:12:07;20.50;90.30
47805;DHT22;33568;45.286;9.900;2022-10-17T00:14:33;20.50;90.00
47805;DHT22;33568;45.286;9.900;2022-10-17T00:17:00;20.60;90.10
47805;DHT22;33568;45.286;9.900;2022-10-17T00:19:27;20.60;90.10
47805;DHT22;33568;45.286;9.900;2022-10-17T00:21:53;20.60;90.20
47805;DHT22;33568;45.286;9.900;2022-10-17T00:24:19;20.50;90.20
47805;DHT22;33568;45.286;9.900;2022-10-17T00:26:46;20.40;90.40
47805;DHT22;33568;45.286;9.900;2022-10-17T00:29:12;20.50;90.30
47805;DHT22;33568;45.286;9.900;2022-10-17T00:31:38;20.40;90.40
47805;DHT22;33568;45.286;9.900;2022-10-17T00:34:04;20.50;90.20
47805;DHT22;33568;45.286;9.900;2022-10-17T00:36:31;20.40;90.40
47805;DHT22;33568;45.286;9.900;2022-10-17T00:38:58;20.50;90.20
47805;DHT22;33568;45.286;9.900;2022-10-17T00:41:30;20.50;90.10
47805;DHT22;33568;45.286;9.900;2022-10-17T00:46:38;20.50;90.30
47805;DHT22;33568;45.286;9.900;2022-10-17T00:49:09;20.50;90.30
47805;DHT22;33568;45.286;9.900;2022-10-17T00:54:13;20.50;90.40
47805;DHT22;33568;45.286;9.900;2022-10-17T00:56:41;20.40;90.40
47805;DHT22;33568;45.286;9.900;2022-10-17T00:59:10;20.40;90.40
47805;DHT22;33568;45.286;9.900;2022-10-17T01:01:43;20.40;90.70
47805;DHT22;33568;45.286;9.900;2022-10-17T01:04:14;20.40;90.50
47805;DHT22;33568;45.286;9.900;2022-10-17T01:06:40;20.40;90.60
47805;DHT22;33568;45.286;9.900;2022-10-17T01:09:09;20.40;90.70
47805;DHT22;33568;45.286;9.900;2022-10-17T01:12:14;20.40;90.60
47805;DHT22;33568;45.286;9.900;2022-10-17T01:22:35;20.30;91.00
47805;DHT22;33568;45.286;9.900;2022-10-17T01:28:28;20.30;90.70
47805;DHT22;33568;45.286;9.900;2022-10-17T01:31:02;20.30;90.70
47805;DHT22;33568;45.286;9.900;2022-10-17T01:36:10;20.30;90.90
47805;DHT22;33568;45.286;9.900;2022-10-17T01:39:46;20.20;91.00
47805;DHT22;33568;45.286;9.900;2022-10-17T01:41:55;20.20;91.00
47805;DHT22;33568;45.286;9.900;2022-10-17T01:47:06;20.20;91.00
47805;DHT22;33568;45.286;9.900;2022-10-17T01:49:36;20.20;91.10
47805;DHT22;33568;45.286;9.900;2022-10-17T01:52:10;20.20;91.10
47805;DHT22;33568;45.286;9.900;2022-10-17T01:54:42;20.20;91.10
47805;DHT22;33568;45.286;9.900;2022-10-17T01:57:19;20.20;91.20
47805;DHT22;33568;45.286;9.900;2022-10-17T01:59:49;20.20;91.20
47805;DHT22;33568;45.286;9.900;2022-10-17T02:02:17;20.10;91.30
47805;DHT22;33568;45.286;9.900;2022-10-17T02:04:46;20.20;91.30
47805;DHT22;33568;45.286;9.900;2022-10-17T02:07:14;20.20;91.30
47805;DHT22;33568;45.286;9.900;2022-10-17T02:09:41;20.20;91.30
47805;DHT22;33568;45.286;9.900;2022-10-17T02:20:34;20.10;91.20
47805;DHT22;33568;45.286;9.900;2022-10-17T02:23:10;20.10;91.20
47805;DHT22;33568;45.286;9.900;2022-10-17T02:25:53;20.10;91.20
47805;DHT22;33568;45.286;9.900;2022-10-17T02:31:08;20.10;91.60
47805;DHT22;33568;45.286;9.900;2022-10-17T02:33:46;20.10;91.30
47805;DHT22;33568;45.286;9.900;2022-10-17T02:36:19;20.10;91.30
47805;DHT22;33568;45.286;9.900;2022-10-17T02:38:48;20.10;91.20
47805;DHT22;33568;45.286;9.900;2022-10-17T02:41:17;20.10;91.20
47805;DHT22;33568;45.286;9.900;2022-10-17T02:43:46;20.10;91.30
47805;DHT22;33568;45.286;9.900;2022-10-17T02:46:15;20.10;91.40
47805;DHT22;33568;45.286;9.900;2022-10-17T02:48:50;20.10;91.40
47805;DHT22;33568;45.286;9.900;2022-10-17T02:54:35;20.00;91.40
47805;DHT22;33568;45.286;9.900;2022-10-17T02:57:01;20.00;91.50
47805;DHT22;33568;45.286;9.900;2022-10-17T02:59:32;20.00;91.50
47805;DHT22;33568;45.286;9.900;2022-10-17T03:02:05;20.00;91.50
47805;DHT22;33568;45.286;9.900;2022-10-17T03:04:33;20.00;91.50
47805;DHT22;33568;45.286;9.900;2022-10-17T03:06:59;20.00;91.50
47805;DHT22;33568;45.286;9.900;2022-10-17T03:09:26;20.00;91.50
47805;DHT22;33568;45.286;9.900;2022-10-17T03:11:52;20.00;91.50
47805;DHT22;33568;45.286;9.900;2022-10-17T03:14:19;20.00;91.50
47805;DHT22;33568;45.286;9.900;2022-10-17T03:16:46;20.00;91.50
47805;DHT22;33568;45.286;9.900;2022-10-17T03:19:17;20.00;91.50
47805;DHT22;33568;45.286;9.900;2022-10-17T03:21:43;19.90;91.50
47805;DHT22;33568;45.286;9.900;2022-10-17T03:24:11;19.90;91.60
47805;DHT22;33568;45.286;9.900;2022-10-17T03:26:38;19.90;91.60
47805;DHT22;33568;45.286;9.900;2022-10-17T03:29:04;20.00;91.60
47805;DHT22;33568;45.286;9.900;2022-10-17T03:31:32;19.90;91.70
47805;DHT22;33568;45.286;9.900;2022-10-17T03:34:01;19.90;91.60
47805;DHT22;33568;45.286;9.900;2022-10-17T03:36:28;19.90;91.60
47805;DHT22;33568;45.286;9.900;2022-10-17T03:38:55;19.90;91.60
47805;DHT22;33568;45.286;9.900;2022-10-17T03:41:22;19.90;91.60
47805;DHT22;33568;45.286;9.900;2022-10-17T03:43:51;19.90;91.60
47805;DHT22;33568;45.286;9.900;2022-10-17T03:46:18;19.80;91.60
47805;DHT22;33568;45.286;9.900;2022-10-17T03:48:45;19.90;91.60
47805;DHT22;33568;45.286;9.900;2022-10-17T03:51:12;19.90;91.60
47805;DHT22;33568;45.286;9.900;2022-10-17T03:53:45;19.90;91.60
47805;DHT22;33568;45.286;9.900;2022-10-17T03:56:13;19.80;91.60
47805;DHT22;33568;45.286;9.900;2022-10-17T03:58:41;19.70;91.60
47805;DHT22;33568;45.286;9.900;2022-10-17T04:01:09;19.70;91.70
47805;DHT22;33568;45.286;9.900;2022-10-17T04:03:37;19.70;91.70
47805;DHT22;33568;45.286;9.900;2022-10-17T04:06:04;19.70;91.70
47805;DHT22;33568;45.286;9.900;2022-10-17T04:08:34;19.70;91.70
47805;DHT22;33568;45.286;9.900;2022-10-17T04:11:17;19.70;91.70
47805;DHT22;33568;45.286;9.900;2022-10-17T04:13:44;19.60;91.70
47805;DHT22;33568;45.286;9.900;2022-10-17T04:16:13;19.60;91.80
47805;DHT22;33568;45.286;9.900;2022-10-17T04:18:55;19.50;91.70
47805;DHT22;33568;45.286;9.900;2022-10-17T04:21:27;19.50;91.70
47805;DHT22;33568;45.286;9.900;2022-10-17T04:23:56;19.50;91.70
47805;DHT22;33568;45.286;9.900;2022-10-17T04:26:39;19.50;91.70
47805;DHT22;33568;45.286;9.900;2022-10-17T04:29:06;19.50;91.70
47805;DHT22;33568;45.286;9.900;2022-10-17T04:31:32;19.50;91.80
47805;DHT22;33568;45.286;9.900;2022-10-17T04:34:17;19.50;91.70
47805;DHT22;33568;45.286;9.900;2022-10-17T04:36:44;19.60;91.70
47805;DHT22;33568;45.286;9.900;2022-10-17T04:39:12;19.50;91.60
47805;DHT22;33568;45.286;9.900;2022-10-17T04:41:39;19.50;91.60
47805;DHT22;33568;45.286;9.900;2022-10-17T04:44:06;19.50;91.70
47805;DHT22;33568;45.286;9.900;2022-10-17T04:46:38;19.40;91.80
47805;DHT22;33568;45.286;9.900;2022-10-17T04:49:05;19.40;91.90
47805;DHT22;33568;45.286;9.900;2022-10-17T04:51:32;19.40;91.90
47805;DHT22;33568;45.286;9.900;2022-10-17T04:54:19;19.40;91.90
47805;DHT22;33568;45.286;9.900;2022-10-17T04:56:49;19.40;91.90
47805;DHT22;33568;45.286;9.900;2022-10-17T04:59:15;19.40;91.90
47805;DHT22;33568;45.286;9.900;2022-10-17T05:01:43;19.20;91.80
47805;DHT22;33568;45.286;9.900;2022-10-17T05:04:10;19.30;91.90
47805;DHT22;33568;45.286;9.900;2022-10-17T05:06:36;19.20;91.70
47805;DHT22;33568;45.286;9.900;2022-10-17T05:09:21;19.10;91.60
47805;DHT22;33568;45.286;9.900;2022-10-17T05:11:48;19.10;91.70
47805;DHT22;33568;45.286;9.900;2022-10-17T05:14:15;19.10;91.70
47805;DHT22;33568;45.286;9.900;2022-10-17T05:16:42;19.20;91.80
47805;DHT22;33568;45.286;9.900;2022-10-17T05:19:10;19.10;91.80
47805;DHT22;33568;45.286;9.900;2022-10-17T05:21:43;19.10;91.70
47805;DHT22;33568;45.286;9.900;2022-10-17T05:24:12;19.10;91.70
47805;DHT22;33568;45.286;9.900;2022-10-17T05:26:39;19.10;91.80
47805;DHT22;33568;45.286;9.900;2022-10-17T05:29:05;19.10;91.80
47805;DHT22;33568;45.286;9.900;2022-10-17T05:31:36;19.00;91.90
47805;DHT22;33568;45.286;9.900;2022-10-17T05:34:03;19.00;91.90
47805;DHT22;33568;45.286;9.900;2022-10-17T05:36:32;19.00;91.90
47805;DHT22;33568;45.286;9.900;2022-10-17T05:39:01;19.00;91.90
47805;DHT22;33568;45.286;9.900;2022-10-17T05:41:29;19.00;91.90
47805;DHT22;33568;45.286;9.900;2022-10-17T05:43:55;19.00;91.90
47805;DHT22;33568;45.286;9.900;2022-10-17T05:46:36;18.90;91.40
47805;DHT22;33568;45.286;9.900;2022-10-17T05:49:03;19.00;91.90
47805;DHT22;33568;45.286;9.900;2022-10-17T05:51:32;19.00;91.80
47805;DHT22;33568;45.286;9.900;2022-10-17T05:54:01;19.00;91.80
47805;DHT22;33568;45.286;9.900;2022-10-17T05:56:30;19.00;91.80
47805;DHT22;33568;45.286;9.900;2022-10-17T05:58:56;19.00;91.80
47805;DHT22;33568;45.286;9.900;2022-10-17T06:01:48;18.90;91.70
47805;DHT22;33568;45.286;9.900;2022-10-17T06:04:15;19.00;91.80
47805;DHT22;33568;45.286;9.900;2022-10-17T06:06:42;19.00;91.70
47805;DHT22;33568;45.286;9.900;2022-10-17T06:09:09;19.00;91.70
47805;DHT22;33568;45.286;9.900;2022-10-17T06:11:38;19.10;91.70
47805;DHT22;33568;45.286;9.900;2022-10-17T06:14:06;19.00;91.60
47805;DHT22;33568;45.286;9.900;2022-10-17T06:16:34;19.00;91.60
47805;DHT22;33568;45.286;9.900;2022-10-17T06:19:00;19.10;91.60
47805;DHT22;33568;45.286;9.900;2022-10-17T06:21:27;19.10;91.60
47805;DHT22;33568;45.286;9.900;2022-10-17T06:24:02;19.00;91.20
47805;DHT22;33568;45.286;9.900;2022-10-17T06:26:32;19.10;91.60
47805;DHT22;33568;45.286;9.900;2022-10-17T06:28:58;19.10;91.50
47805;DHT22;33568;45.286;9.900;2022-10-17T06:31:29;19.10;91.40
47805;DHT22;33568;45.286;9.900;2022-10-17T06:33:55;19.10;91.40
47805;DHT22;33568;45.286;9.900;2022-10-17T06:36:22;19.10;91.10
47805;DHT22;33568;45.286;9.900;2022-10-17T06:38:50;19.10;91.30
47805;DHT22;33568;45.286;9.900;2022-10-17T06:41:24;19.20;91.30
47805;DHT22;33568;45.286;9.900;2022-10-17T06:43:53;19.20;91.20
47805;DHT22;33568;45.286;9.900;2022-10-17T06:46:38;19.20;91.20
47805;DHT22;33568;45.286;9.900;2022-10-17T06:49:09;19.20;91.20
47805;DHT22;33568;45.286;9.900;2022-10-17T06:52:01;19.20;91.20
47805;DHT22;33568;45.286;9.900;2022-10-17T06:54:38;19.30;91.20
47805;DHT22;33568;45.286;9.900;2022-10-17T06:57:25;19.30;91.20
47805;DHT22;33568;45.286;9.900;2022-10-17T07:00:20;19.40;91.20
47805;DHT22;33568;45.286;9.900;2022-10-17T07:02:51;19.50;91.00
47805;DHT22;33568;45.286;9.900;2022-10-17T07:05:18;19.60;90.80
47805;DHT22;33568;45.286;9.900;2022-10-17T07:07:45;19.80;90.70
47805;DHT22;33568;45.286;9.900;2022-10-17T07:10:11;19.80;90.70
47805;DHT22;33568;45.286;9.900;2022-10-17T07:12:39;19.90;90.60
47805;DHT22;33568;45.286;9.900;2022-10-17T07:15:06;20.00;90.50
47805;DHT22;33568;45.286;9.900;2022-10-17T07:17:33;20.10;90.70
47805;DHT22;33568;45.286;9.900;2022-10-17T07:19:59;20.10;90.40
47805;DHT22;33568;45.286;9.900;2022-10-17T07:22:26;20.10;90.60
47805;DHT22;33568;45.286;9.900;2022-10-17T07:24:56;20.20;90.30
47805;DHT22;33568;45.286;9.900;2022-10-17T07:27:28;20.30;90.20
47805;DHT22;33568;45.286;9.900;2022-10-17T07:29:55;20.30;90.10
47805;DHT22;33568;45.286;9.900;2022-10-17T07:32:36;20.30;90.30
47805;DHT22;33568;45.286;9.900;2022-10-17T07:35:04;20.40;90.10
47805;DHT22;33568;45.286;9.900;2022-10-17T07:37:31;20.40;90.00
47805;DHT22;33568;45.286;9.900;2022-10-17T07:39:59;20.50;89.90
47805;DHT22;33568;45.286;9.900;2022-10-17T07:42:25;20.50;89.90
47805;DHT22;33568;45.286;9.900;2022-10-17T07:44:54;20.50;90.00
47805;DHT22;33568;45.286;9.900;2022-10-17T07:47:21;20.50;90.00
47805;DHT22;33568;45.286;9.900;2022-10-17T07:49:48;20.50;90.00
47805;DHT22;33568;45.286;9.900;2022-10-17T07:52:16;20.60;90.10
47805;DHT22;33568;45.286;9.900;2022-10-17T07:54:43;20.60;89.70
47805;DHT22;33568;45.286;9.900;2022-10-17T07:57:09;20.70;89.60
47805;DHT22;33568;45.286;9.900;2022-10-17T07:59:36;20.70;89.60
47805;DHT22;33568;45.286;9.900;2022-10-17T08:02:03;20.80;89.60
47805;DHT22;33568;45.286;9.900;2022-10-17T08:04:30;20.80;89.80
47805;DHT22;33568;45.286;9.900;2022-10-17T08:06:56;20.80;89.90
47805;DHT22;33568;45.286;9.900;2022-10-17T08:09:24;20.80;89.90
47805;DHT22;33568;45.286;9.900;2022-10-17T08:11:51;20.90;89.80
47805;DHT22;33568;45.286;9.900;2022-10-17T08:14:42;20.90;89.80
47805;DHT22;33568;45.286;9.900;2022-10-17T08:17:09;20.90;90.00
47805;DHT22;33568;45.286;9.900;2022-10-17T08:19:38;20.90;90.50
47805;DHT22;33568;45.286;9.900;2022-10-17T08:22:05;20.70;91.80
47805;DHT22;33568;45.286;9.900;2022-10-17T08:24:32;20.70;90.90
47805;DHT22;33568;45.286;9.900;2022-10-17T08:26:58;20.70;90.80
47805;DHT22;33568;45.286;9.900;2022-10-17T08:29:26;20.70;91.80
47805;DHT22;33568;45.286;9.900;2022-10-17T08:31:53;20.80;90.60
47805;DHT22;33568;45.286;9.900;2022-10-17T08:34:19;21.00;90.50
47805;DHT22;33568;45.286;9.900;2022-10-17T08:36:45;20.90;91.20
47805;DHT22;33568;45.286;9.900;2022-10-17T08:39:11;20.90;90.60
47805;DHT22;33568;45.286;9.900;2022-10-17T08:41:44;20.80;92.00
47805;DHT22;33568;45.286;9.900;2022-10-17T08:44:16;20.70;91.20
47805;DHT22;33568;45.286;9.900;2022-10-17T08:46:47;20.70;91.20
47805;DHT22;33568;45.286;9.900;2022-10-17T08:49:36;20.70;91.40
47805;DHT22;33568;45.286;9.900;2022-10-17T08:52:34;20.70;91.30
47805;DHT22;33568;45.286;9.900;2022-10-17T08:55:11;20.70;91.40
47805;DHT22;33568;45.286;9.900;2022-10-17T08:57:39;20.80;91.30
47805;DHT22;33568;45.286;9.900;2022-10-17T09:00:15;20.90;91.50
47805;DHT22;33568;45.286;9.900;2022-10-17T09:03:02;20.80;91.90
47805;DHT22;33568;45.286;9.900;2022-10-17T09:05:32;20.70;92.30
47805;DHT22;33568;45.286;9.900;2022-10-17T09:08:23;20.70;92.40
47805;DHT22;33568;45.286;9.900;2022-10-17T09:10:59;20.70;92.00
47805;DHT22;33568;45.286;9.900;2022-10-17T09:18:49;21.10;91.60
47805;DHT22;33568;45.286;9.900;2022-10-17T09:21:24;21.50;91.00
47805;DHT22;33568;45.286;9.900;2022-10-17T09:24:00;21.80;90.60
47805;DHT22;33568;45.286;9.900;2022-10-17T09:26:28;22.10;90.40
47805;DHT22;33568;45.286;9.900;2022-10-17T09:28:58;22.50;90.50
47805;DHT22;33568;45.286;9.900;2022-10-17T09:31:29;23.20;90.10
47805;DHT22;33568;45.286;9.900;2022-10-17T09:34:00;23.80;88.90
47805;DHT22;33568;45.286;9.900;2022-10-17T09:36:31;24.40;86.50
47805;DHT22;33568;45.286;9.900;2022-10-17T09:39:03;24.90;85.00
47805;DHT22;33568;45.286;9.900;2022-10-17T09:41:39;25.30;84.00
47805;DHT22;33568;45.286;9.900;2022-10-17T09:44:33;25.80;81.00
47805;DHT22;33568;45.286;9.900;2022-10-17T09:49:46;26.80;79.30
47805;DHT22;33568;45.286;9.900;2022-10-17T09:57:14;27.40;76.00
47805;DHT22;33568;45.286;9.900;2022-10-17T09:59:59;27.70;74.80
47805;DHT22;33568;45.286;9.900;2022-10-17T10:02:28;27.60;72.00
47805;DHT22;33568;45.286;9.900;2022-10-17T10:05:15;27.60;73.70
47805;DHT22;33568;45.286;9.900;2022-10-17T10:07:42;28.00;71.60
47805;DHT22;33568;45.286;9.900;2022-10-17T10:10:26;28.40;72.40
47805;DHT22;33568;45.286;9.900;2022-10-17T10:15:41;29.00;68.70
47805;DHT22;33568;45.286;9.900;2022-10-17T10:18:31;28.80;69.60
47805;DHT22;33568;45.286;9.900;2022-10-17T10:21:08;28.60;67.80
47805;DHT22;33568;45.286;9.900;2022-10-17T10:23:36;28.50;68.70
47805;DHT22;33568;45.286;9.900;2022-10-17T10:26:27;28.40;69.30
47805;DHT22;33568;45.286;9.900;2022-10-17T10:28:56;28.80;67.90
47805;DHT22;33568;45.286;9.900;2022-10-17T10:31:43;29.00;68.10
47805;DHT22;33568;45.286;9.900;2022-10-17T10:34:29;29.20;66.20
47805;DHT22;33568;45.286;9.900;2022-10-17T10:37:05;29.50;64.90
47805;DHT22;33568;45.286;9.900;2022-10-17T10:42:30;30.10;65.00
47805;DHT22;33568;45.286;9.900;2022-10-17T10:47:38;29.70;65.20
47805;DHT22;33568;45.286;9.900;2022-10-17T10:50:17;29.80;65.30
47805;DHT22;33568;45.286;9.900;2022-10-17T10:55:51;30.30;63.20
47805;DHT22;33568;45.286;9.900;2022-10-17T10:58:40;30.50;62.00
47805;DHT22;33568;45.286;9.900;2022-10-17T11:01:21;30.50;61.80
47805;DHT22;33568;45.286;9.900;2022-10-17T11:06:43;30.20;61.80
47805;DHT22;33568;45.286;9.900;2022-10-17T11:14:45;30.50;61.40
47805;DHT22;33568;45.286;9.900;2022-10-17T11:20:04;30.50;61.50
47805;DHT22;33568;45.286;9.900;2022-10-17T11:22:37;30.60;61.50
47805;DHT22;33568;45.286;9.900;2022-10-17T11:27:38;30.90;61.20
47805;DHT22;33568;45.286;9.900;2022-10-17T11:30:05;31.00;61.50
47805;DHT22;33568;45.286;9.900;2022-10-17T11:32:55;31.10;60.90
47805;DHT22;33568;45.286;9.900;2022-10-17T11:41:02;30.80;59.50
47805;DHT22;33568;45.286;9.900;2022-10-17T11:43:53;30.80;60.70
47805;DHT22;33568;45.286;9.900;2022-10-17T11:46:26;30.60;58.90
47805;DHT22;33568;45.286;9.900;2022-10-17T11:49:12;30.50;60.00
47805;DHT22;33568;45.286;9.900;2022-10-17T11:57:17;30.80;60.00
47805;DHT22;33568;45.286;9.900;2022-10-17T12:02:51;31.00;59.10
47805;DHT22;33568;45.286;9.900;2022-10-17T12:07:58;31.50;59.20
47805;DHT22;33568;45.286;9.900;2022-10-17T12:10:42;31.50;58.00
47805;DHT22;33568;45.286;9.900;2022-10-17T12:15:57;31.30;57.40
47805;DHT22;33568;45.286;9.900;2022-10-17T12:18:25;31.40;58.40
47805;DHT22;33568;45.286;9.900;2022-10-17T12:20:59;31.40;57.80
47805;DHT22;33568;45.286;9.900;2022-10-17T12:23:26;31.00;57.20
47805;DHT22;33568;45.286;9.900;2022-10-17T12:26:05;30.30;58.00
47805;DHT22;33568;45.286;9.900;2022-10-17T12:28:33;29.40;59.60
47805;DHT22;33568;45.286;9.900;2022-10-17T12:38:43;27.70;63.50
47805;DHT22;33568;45.286;9.900;2022-10-17T12:41:10;27.30;64.10
47805;DHT22;33568;45.286;9.900;2022-10-17T12:43:44;27.10;64.70
47805;DHT22;33568;45.286;9.900;2022-10-17T12:46:11;26.90;65.40
47805;DHT22;33568;45.286;9.900;2022-10-17T12:51:18;26.70;65.90
47805;DHT22;33568;45.286;9.900;2022-10-17T12:56:12;26.40;66.80
47805;DHT22;33568;45.286;9.900;2022-10-17T12:58:46;26.30;67.20
47805;DHT22;33568;45.286;9.900;2022-10-17T13:01:21;26.30;67.60
47805;DHT22;33568;45.286;9.900;2022-10-17T13:03:51;26.30;68.10
47805;DHT22;33568;45.286;9.900;2022-10-17T13:06:22;26.20;68.30
47805;DHT22;33568;45.286;9.900;2022-10-17T13:08:57;26.10;68.50
47805;DHT22;33568;45.286;9.900;2022-10-17T13:11:26;26.00;68.70
47805;DHT22;33568;45.286;9.900;2022-10-17T13:13:57;25.90;68.80
47805;DHT22;33568;45.286;9.900;2022-10-17T13:16:37;25.80;69.00
47805;DHT22;33568;45.286;9.900;2022-10-17T13:19:13;25.70;69.40
47805;DHT22;33568;45.286;9.900;2022-10-17T13:21:57;25.70;69.40
47805;DHT22;33568;45.286;9.900;2022-10-17T13:26:55;25.70;69.50
47805;DHT22;33568;45.286;9.900;2022-10-17T13:29:22;25.70;69.90
47805;DHT22;33568;45.286;9.900;2022-10-17T13:31:53;25.60;70.10
47805;DHT22;33568;45.286;9.900;2022-10-17T13:34:22;25.70;69.90
47805;DHT22;33568;45.286;9.900;2022-10-17T13:37:04;25.70;70.00
47805;DHT22;33568;45.286;9.900;2022-10-17T13:39:37;25.70;69.90
47805;DHT22;33568;45.286;9.900;2022-10-17T13:42:12;25.70;70.00
47805;DHT22;33568;45.286;9.900;2022-10-17T13:44:40;25.70;70.00
47805;DHT22;33568;45.286;9.900;2022-10-17T13:47:30;25.80;70.10
47805;DHT22;33568;45.286;9.900;2022-10-17T13:49:59;25.80;69.80
47805;DHT22;33568;45.286;9.900;2022-10-17T13:52:28;25.80;70.00
47805;DHT22;33568;45.286;9.900;2022-10-17T13:55:08;25.80;69.30
47805;DHT22;33568;45.286;9.900;2022-10-17T13:57:38;25.70;68.30
47805;DHT22;33568;45.286;9.900;2022-10-17T14:00:09;25.60;68.70
47805;DHT22;33568;45.286;9.900;2022-10-17T14:02:40;25.60;69.10
47805;DHT22;33568;45.286;9.900;2022-10-17T14:10:32;25.60;69.00
47805;DHT22;33568;45.286;9.900;2022-10-17T14:13:00;25.50;69.40
47805;DHT22;33568;45.286;9.900;2022-10-17T14:15:30;25.50;69.50
47805;DHT22;33568;45.286;9.900;2022-10-17T14:18:04;25.50;69.30
47805;DHT22;33568;45.286;9.900;2022-10-17T14:20:32;25.50;69.30
47805;DHT22;33568;45.286;9.900;2022-10-17T14:22:59;25.50;69.80
47805;DHT22;33568;45.286;9.900;2022-10-17T14:25:37;25.50;70.10
47805;DHT22;33568;45.286;9.900;2022-10-17T14:33:27;25.50;70.50
47805;DHT22;33568;45.286;9.900;2022-10-17T14:35:56;25.40;70.00
47805;DHT22;33568;45.286;9.900;2022-10-17T14:38:24;25.40;70.20
47805;DHT22;33568;45.286;9.900;2022-10-17T14:41:02;25.50;70.20
47805;DHT22;33568;45.286;9.900;2022-10-17T14:43:31;25.50;70.10
47805;DHT22;33568;45.286;9.900;2022-10-17T14:45:59;25.40;70.20
47805;DHT22;33568;45.286;9.900;2022-10-17T14:48:27;25.40;70.40
47805;DHT22;33568;45.286;9.900;2022-10-17T14:51:14;25.40;70.50
47805;DHT22;33568;45.286;9.900;2022-10-17T14:54:04;25.40;70.10
47805;DHT22;33568;45.286;9.900;2022-10-17T14:56:41;25.30;70.40
47805;DHT22;33568;45.286;9.900;2022-10-17T14:59:08;25.30;70.20
47805;DHT22;33568;45.286;9.900;2022-10-17T15:01:37;25.20;70.80
47805;DHT22;33568;45.286;9.900;2022-10-17T15:04:03;25.10;70.70
47805;DHT22;33568;45.286;9.900;2022-10-17T15:06:33;25.00;70.80
47805;DHT22;33568;45.286;9.900;2022-10-17T15:09:00;25.00;70.80
47805;DHT22;33568;45.286;9.900;2022-10-17T15:11:27;24.90;70.70
47805;DHT22;33568;45.286;9.900;2022-10-17T15:13:53;24.80;70.40
47805;DHT22;33568;45.286;9.900;2022-10-17T15:16:22;24.70;70.70
47805;DHT22;33568;45.286;9.900;2022-10-17T15:18:50;24.60;71.00
47805;DHT22;33568;45.286;9.900;2022-10-17T15:21:19;24.60;71.10
47805;DHT22;33568;45.286;9.900;2022-10-17T15:23:46;24.60;71.20
47805;DHT22;33568;45.286;9.900;2022-10-17T15:26:25;24.60;71.50
47805;DHT22;33568;45.286;9.900;2022-10-17T15:28:52;24.50;71.80
47805;DHT22;33568;45.286;9.900;2022-10-17T15:31:21;24.60;71.90
47805;DHT22;33568;45.286;9.900;2022-10-17T15:33:48;24.50;71.80
47805;DHT22;33568;45.286;9.900;2022-10-17T15:36:30;24.50;71.90
47805;DHT22;33568;45.286;9.900;2022-10-17T15:38:59;24.50;71.80
47805;DHT22;33568;45.286;9.900;2022-10-17T15:41:29;24.50;72.20
47805;DHT22;33568;45.286;9.900;2022-10-17T15:43:56;24.50;72.30
47805;DHT22;33568;45.286;9.900;2022-10-17T15:46:28;24.40;72.40
47805;DHT22;33568;45.286;9.900;2022-10-17T15:49:01;24.30;72.70
47805;DHT22;33568;45.286;9.900;2022-10-17T15:51:28;24.30;73.20
47805;DHT22;33568;45.286;9.900;2022-10-17T15:53:54;24.30;73.70
47805;DHT22;33568;45.286;9.900;2022-10-17T15:56:42;24.20;74.10
47805;DHT22;33568;45.286;9.900;2022-10-17T15:59:14;24.20;74.70
47805;DHT22;33568;45.286;9.900;2022-10-17T16:01:41;24.10;75.00
47805;DHT22;33568;45.286;9.900;2022-10-17T16:04:10;24.10;75.20
47805;DHT22;33568;45.286;9.900;2022-10-17T16:06:38;24.00;75.70
47805;DHT22;33568;45.286;9.900;2022-10-17T16:09:04;24.00;76.10
47805;DHT22;33568;45.286;9.900;2022-10-17T16:11:36;23.90;76.50
47805;DHT22;33568;45.286;9.900;2022-10-17T16:14:05;23.90;76.80
47805;DHT22;33568;45.286;9.900;2022-10-17T16:16:32;23.90;77.20
47805;DHT22;33568;45.286;9.900;2022-10-17T16:18:59;23.80;77.50
47805;DHT22;33568;45.286;9.900;2022-10-17T16:21:29;23.70;77.80
47805;DHT22;33568;45.286;9.900;2022-10-17T16:23:56;23.70;78.10
47805;DHT22;33568;45.286;9.900;2022-10-17T16:26:24;23.60;78.50
47805;DHT22;33568;45.286;9.900;2022-10-17T16:28:50;23.60;79.00
47805;DHT22;33568;45.286;9.900;2022-10-17T16:31:27;23.50;79.20
47805;DHT22;33568;45.286;9.900;2022-10-17T16:33:56;23.50;79.50
47805;DHT22;33568;45.286;9.900;2022-10-17T16:36:23;23.50;79.80
47805;DHT22;33568;45.286;9.900;2022-10-17T16:38:50;23.50;80.00
47805;DHT22;33568;45.286;9.900;2022-10-17T16:41:23;23.50;80.20
47805;DHT22;33568;45.286;9.900;2022-10-17T16:43:51;23.50;80.40
47805;DHT22;33568;45.286;9.900;2022-10-17T16:46:19;23.50;80.70
47805;DHT22;33568;45.286;9.900;2022-10-17T16:48:46;23.50;81.00
47805;DHT22;33568;45.286;9.900;2022-10-17T16:51:13;23.40;81.20
47805;DHT22;33568;45.286;9.900;2022-10-17T16:53:40;23.40;81.40
47805;DHT22;33568;45.286;9.900;2022-10-17T16:56:18;23.40;81.60
47805;DHT22;33568;45.286;9.900;2022-10-17T16:58:45;23.40;81.70
47805;DHT22;33568;45.286;9.900;2022-10-17T17:01:14;23.40;81.90
47805;DHT22;33568;45.286;9.900;2022-10-17T17:03:42;23.40;82.10
47805;DHT22;33568;45.286;9.900;2022-10-17T17:06:13;23.30;82.20
47805;DHT22;33568;45.286;9.900;2022-10-17T17:08:41;23.30;82.30
47805;DHT22;33568;45.286;9.900;2022-10-17T17:11:08;23.30;82.60
47805;DHT22;33568;45.286;9.900;2022-10-17T17:13:35;23.20;82.80
47805;DHT22;33568;45.286;9.900;2022-10-17T17:16:13;23.20;83.00
47805;DHT22;33568;45.286;9.900;2022-10-17T17:18:41;23.20;83.30
47805;DHT22;33568;45.286;9.900;2022-10-17T17:21:09;23.10;83.40
47805;DHT22;33568;45.286;9.900;2022-10-17T17:23:38;23.20;83.60
47805;DHT22;33568;45.286;9.900;2022-10-17T17:26:11;23.10;83.60
47805;DHT22;33568;45.286;9.900;2022-10-17T17:28:38;23.10;83.50
47805;DHT22;33568;45.286;9.900;2022-10-17T17:31:06;23.20;83.70
47805;DHT22;33568;45.286;9.900;2022-10-17T17:33:34;23.10;83.80
47805;DHT22;33568;45.286;9.900;2022-10-17T17:36:02;23.10;84.00
47805;DHT22;33568;45.286;9.900;2022-10-17T17:38:29;23.10;84.10
47805;DHT22;33568;45.286;9.900;2022-10-17T17:40:56;23.00;84.20
47805;DHT22;33568;45.286;9.900;2022-10-17T17:43:22;23.00;84.30
47805;DHT22;33568;45.286;9.900;2022-10-17T17:45:49;23.00;84.40
47805;DHT22;33568;45.286;9.900;2022-10-17T17:48:15;23.00;84.50
47805;DHT22;33568;45.286;9.900;2022-10-17T17:50:42;23.00;84.60
47805;DHT22;33568;45.286;9.900;2022-10-17T17:53:11;23.00;84.80
47805;DHT22;33568;45.286;9.900;2022-10-17T17:55:37;23.00;84.80